createdAt,value
2023-03-10T11:07:29.143Z,22.09
2023-03-10T11:08:30.214Z,22.12
2023-03-10T11:09:30.290Z,22.14
2023-03-10T11:10:30.378Z,22.15
2023-03-10T11:11:30.485Z,22.17
2023-03-10T11:12:30.548Z,22.19
2023-03-10T11:13:30.673Z,22.20
2023-03-10T11:14:30.751Z,22.21
2023-03-10T11:15:30.808Z,22.21
2023-03-10T11:16:31.043Z,22.24
2023-03-10T11:17:31.014Z,22.23
2023-03-10T11:18:31.072Z,22.26
2023-03-10T11:19:31.100Z,22.23
2023-03-10T11:20:31.236Z,22.24
2023-03-10T11:21:31.295Z,22.24
2023-03-10T11:22:31.407Z,22.24
2023-03-10T11:23:31.496Z,22.26
2023-03-10T11:24:31.600Z,22.24
2023-03-10T11:25:31.639Z,22.26
2023-03-10T11:26:31.687Z,22.27
2023-03-10T11:27:31.753Z,22.24
2023-03-10T11:28:31.843Z,22.24
2023-03-10T11:29:31.985Z,22.24
2023-03-10T11:30:31.996Z,22.26
2023-03-10T11:31:32.156Z,22.24
2023-03-10T11:32:32.305Z,22.23
2023-03-10T11:33:32.247Z,22.24
2023-03-10T11:34:32.329Z,22.23
2023-03-10T11:35:32.491Z,22.21
2023-03-10T11:36:33.107Z,22.23
2023-03-10T11:37:32.536Z,22.23
2023-03-10T11:38:32.641Z,22.24
2023-03-10T11:39:32.724Z,22.23
2023-03-10T11:40:32.781Z,22.24
2023-03-10T11:41:32.941Z,22.23
2023-03-10T11:42:32.956Z,22.21
2023-03-10T11:43:33.017Z,22.21
2023-03-10T11:44:33.072Z,22.21
2023-03-10T11:45:33.149Z,22.23
2023-03-10T11:46:33.399Z,22.21
2023-03-10T11:47:33.352Z,22.21
2023-03-10T11:48:33.382Z,22.21
2023-03-10T11:49:33.478Z,22.23
2023-03-10T11:50:33.630Z,22.21
2023-03-10T11:51:33.627Z,22.21
2023-03-10T11:52:33.769Z,22.21
2023-03-10T11:53:33.794Z,22.21
2023-03-10T11:54:33.858Z,22.23
2023-03-10T11:55:33.995Z,22.21
2023-03-10T11:56:34.037Z,22.21
2023-03-10T11:57:34.153Z,22.21
2023-03-10T11:58:34.203Z,22.21
2023-03-10T11:59:34.412Z,22.21
2023-03-10T12:00:34.371Z,22.21
2023-03-10T12:01:34.472Z,22.21
2023-03-10T12:02:34.575Z,22.21
2023-03-10T12:03:34.748Z,22.21
2023-03-10T12:04:34.760Z,22.24
2023-03-10T12:05:34.863Z,22.21
2023-03-10T12:06:34.970Z,22.23
2023-03-10T12:07:35.057Z,22.23
2023-03-10T12:08:35.134Z,22.24
2023-03-10T12:09:35.171Z,22.23
2023-03-10T12:10:35.251Z,22.23
2023-03-10T12:11:35.346Z,22.24
2023-03-10T12:12:35.445Z,22.24
2023-03-10T12:13:35.523Z,22.24
2023-03-10T12:14:35.633Z,22.24
2023-03-10T12:15:35.695Z,22.26
2023-03-10T12:16:35.872Z,22.26
2023-03-10T12:17:35.862Z,22.27
2023-03-10T12:18:35.917Z,22.26
2023-03-10T12:19:35.995Z,22.27
2023-03-10T12:20:36.084Z,22.26
2023-03-10T12:21:36.176Z,22.27
2023-03-10T12:22:36.294Z,22.27
2023-03-10T12:23:36.330Z,22.29
2023-03-10T12:24:36.400Z,22.27
2023-03-10T12:25:36.506Z,22.27
2023-03-10T12:26:36.585Z,22.27
2023-03-10T12:27:36.673Z,22.27
2023-03-10T12:28:36.710Z,22.27
2023-03-10T12:29:36.854Z,22.29
2023-03-10T12:30:36.913Z,22.27
2023-03-10T12:31:37.052Z,22.26
2023-03-10T12:32:37.105Z,22.27
2023-03-10T12:33:37.089Z,22.29
2023-03-10T12:34:37.199Z,22.27
2023-03-10T12:35:37.478Z,22.27
2023-03-10T12:36:37.412Z,22.27
2023-03-10T12:37:37.488Z,22.27
2023-03-10T12:38:37.629Z,22.27
2023-03-10T12:39:37.673Z,22.27
2023-03-10T12:40:37.768Z,22.26
2023-03-10T12:41:37.837Z,22.27
2023-03-10T12:42:37.925Z,22.29
2023-03-10T12:43:38.002Z,22.29
2023-03-10T12:44:38.087Z,22.29
2023-03-10T12:45:38.172Z,22.29
2023-03-10T12:46:38.317Z,22.30
2023-03-10T12:47:38.330Z,22.29
2023-03-10T12:48:38.407Z,22.29
2023-03-10T12:49:38.496Z,22.29
2023-03-10T12:50:38.557Z,22.29
2023-03-10T12:51:38.656Z,22.29
2023-03-10T12:52:38.841Z,22.31
2023-03-10T12:53:38.867Z,22.29
2023-03-10T12:54:38.893Z,22.29
2023-03-10T12:55:39.040Z,22.30
2023-03-10T12:56:39.140Z,22.29
2023-03-10T12:57:39.158Z,22.29
2023-03-10T12:58:39.231Z,22.30
2023-03-10T12:59:39.276Z,22.30
2023-03-10T13:00:39.373Z,22.31
2023-03-10T13:01:43.265Z,22.30
2023-03-10T13:02:39.646Z,22.31
2023-03-10T13:03:39.661Z,22.31
2023-03-10T13:04:39.696Z,22.31
2023-03-10T13:05:39.897Z,22.31
2023-03-10T13:06:39.829Z,22.33
2023-03-10T13:07:39.943Z,22.33
2023-03-10T13:08:40.666Z,22.31
2023-03-10T13:09:40.117Z,22.33
2023-03-10T13:10:40.150Z,22.35
2023-03-10T13:11:40.223Z,22.36
2023-03-10T13:12:40.332Z,22.35
2023-03-10T13:13:40.412Z,22.35
2023-03-10T13:14:40.480Z,22.38
2023-03-10T13:15:40.555Z,22.36
2023-03-10T13:16:40.655Z,22.36
2023-03-10T13:17:40.723Z,22.38
2023-03-10T13:18:40.804Z,22.36
2023-03-10T13:19:40.918Z,22.38
2023-03-10T13:20:40.952Z,22.38
2023-03-10T13:21:41.045Z,22.39
2023-03-10T13:22:41.107Z,22.39
2023-03-10T13:23:41.175Z,22.39
2023-03-10T13:24:45.110Z,22.39
2023-03-10T13:25:41.363Z,22.41
2023-03-10T13:26:41.457Z,22.39
2023-03-10T13:27:41.565Z,22.39
2023-03-10T13:28:41.633Z,22.39
2023-03-10T13:29:41.728Z,22.41
2023-03-10T13:30:41.798Z,22.42
2023-03-10T13:31:42.017Z,22.42
2023-03-10T13:32:42.082Z,22.44
2023-03-10T13:33:52.258Z,22.42
2023-03-10T13:34:42.153Z,22.42
2023-03-10T13:35:42.279Z,22.42
2023-03-10T13:36:42.299Z,22.44
2023-03-10T13:37:42.714Z,22.42
2023-03-10T13:38:42.416Z,22.42
2023-03-10T13:39:42.557Z,22.44
2023-03-10T13:40:42.686Z,22.44
2023-03-10T13:41:42.758Z,22.44
2023-03-10T13:42:44.684Z,22.42
2023-03-10T13:43:42.851Z,22.42
2023-03-10T13:44:42.924Z,22.41
2023-03-10T13:45:43.043Z,22.41
2023-03-10T13:46:43.191Z,22.41
2023-03-10T13:47:43.226Z,22.39
2023-03-10T13:48:43.229Z,22.39
2023-03-10T13:49:43.352Z,22.39
2023-03-10T13:50:43.376Z,22.38
2023-03-10T13:51:43.472Z,22.35
2023-03-10T13:52:43.588Z,22.36
2023-03-10T13:53:43.620Z,22.38
2023-03-10T13:54:43.716Z,22.35
2023-03-10T13:55:43.786Z,22.35
2023-03-10T13:56:43.886Z,22.35
2023-03-10T13:57:43.952Z,22.33
2023-03-10T13:58:44.051Z,22.33
2023-03-10T13:59:44.097Z,22.35
2023-03-10T14:00:44.190Z,22.35
2023-03-10T14:01:44.282Z,22.33
2023-03-10T14:02:44.354Z,22.33
2023-03-10T14:03:44.468Z,22.31
2023-03-10T14:04:44.700Z,22.31
2023-03-10T14:05:44.603Z,22.31
2023-03-10T14:06:44.699Z,22.30
2023-03-10T14:07:44.738Z,22.30
2023-03-10T14:08:44.871Z,22.31
2023-03-10T14:09:44.914Z,22.31
2023-03-10T14:10:45.247Z,22.31
2023-03-10T14:11:45.015Z,22.31
2023-03-10T14:12:45.147Z,22.31
2023-03-10T14:13:45.348Z,22.31
2023-03-10T14:14:45.332Z,22.31
2023-03-10T14:15:45.378Z,22.29
2023-03-10T14:16:45.575Z,22.33
2023-03-10T14:17:45.594Z,22.33
2023-03-10T14:18:45.614Z,22.31
2023-03-10T14:19:45.717Z,22.33
2023-03-10T14:20:45.800Z,22.33
2023-03-10T14:21:59.302Z,22.35
2023-03-10T14:22:45.926Z,22.33
2023-03-10T14:23:46.017Z,22.33
2023-03-10T14:24:46.089Z,22.36
2023-03-10T14:25:46.138Z,22.35
2023-03-10T14:26:46.226Z,22.35
2023-03-10T14:27:46.288Z,22.36
2023-03-10T14:28:46.323Z,22.36
2023-03-10T14:29:46.399Z,22.38
2023-03-10T14:30:46.520Z,22.36
2023-03-10T14:31:46.529Z,22.36
2023-03-10T14:32:46.634Z,22.38
2023-03-10T14:33:46.668Z,22.36
2023-03-10T14:34:46.759Z,22.36
2023-03-10T14:35:46.881Z,22.38
2023-03-10T14:36:46.882Z,22.36
2023-03-10T14:37:46.987Z,22.39
2023-03-10T14:38:47.041Z,22.38
2023-03-10T14:39:47.110Z,22.39
2023-03-10T14:40:47.176Z,22.36
2023-03-10T14:41:47.232Z,22.36
2023-03-10T14:42:47.351Z,22.39
2023-03-10T14:43:47.367Z,22.39
2023-03-10T14:44:47.510Z,22.39
2023-03-10T14:45:47.654Z,22.39
2023-03-10T14:46:47.860Z,22.38
2023-03-10T14:47:47.993Z,22.41
2023-03-10T14:48:47.800Z,22.41
2023-03-10T14:49:47.905Z,22.42
2023-03-10T14:50:47.980Z,22.42
2023-03-10T14:51:48.046Z,22.42
2023-03-10T14:52:48.112Z,22.41
2023-03-10T14:53:48.219Z,22.42
2023-03-10T14:54:48.322Z,22.41
2023-03-10T14:55:48.407Z,22.41
2023-03-10T14:56:48.470Z,22.41
2023-03-10T14:57:48.508Z,22.42
2023-03-10T14:58:48.826Z,22.41
2023-03-10T14:59:48.736Z,22.41
2023-03-10T15:00:48.764Z,22.41
2023-03-10T15:01:48.980Z,22.39
2023-03-10T15:02:48.905Z,22.39
2023-03-10T15:03:48.987Z,22.38
2023-03-10T15:04:49.237Z,22.38
2023-03-10T15:05:49.608Z,22.35
2023-03-10T15:06:49.474Z,22.35
2023-03-10T15:07:49.625Z,22.33
2023-03-10T15:08:49.319Z,22.35
2023-03-10T15:09:52.566Z,22.33
2023-03-10T15:10:49.501Z,22.35
2023-03-10T15:11:49.549Z,22.33
2023-03-10T15:12:49.725Z,22.33
2023-03-10T15:13:49.728Z,22.31
2023-03-10T15:14:49.826Z,22.35
2023-03-10T15:15:49.980Z,22.33
2023-03-10T15:16:50.014Z,22.36
2023-03-10T15:17:50.118Z,22.36
2023-03-10T15:18:50.157Z,22.38
2023-03-10T15:19:50.263Z,22.45
2023-03-10T15:20:50.297Z,22.48
2023-03-10T15:21:50.363Z,22.49
2023-03-10T15:22:50.445Z,22.51
2023-03-10T15:23:50.489Z,22.51
2023-03-10T15:24:50.550Z,22.56
2023-03-10T15:25:50.997Z,22.57
2023-03-10T15:26:50.756Z,22.61
2023-03-10T15:27:50.755Z,22.66
2023-03-10T15:28:50.856Z,22.66
2023-03-10T15:29:50.937Z,22.66
2023-03-10T15:30:51.063Z,22.63
2023-03-10T15:31:51.067Z,22.61
2023-03-10T15:32:51.252Z,22.60
2023-03-10T15:33:51.267Z,22.59
2023-03-10T15:34:51.313Z,22.59
2023-03-10T15:35:51.444Z,22.57
2023-03-10T15:36:51.489Z,22.57
2023-03-10T15:37:51.559Z,22.56
2023-03-10T15:38:51.601Z,22.56
2023-03-10T15:39:51.684Z,22.56
2023-03-10T15:40:51.741Z,22.56
2023-03-10T15:41:51.839Z,22.54
2023-03-10T15:42:51.950Z,22.54
2023-03-10T15:43:51.969Z,22.54
2023-03-10T15:44:52.044Z,22.51
2023-03-10T15:45:52.100Z,22.52
2023-03-10T15:46:52.271Z,22.52
2023-03-10T15:47:52.270Z,22.51
2023-03-10T15:48:52.359Z,22.51
2023-03-10T15:49:52.392Z,22.52
2023-03-10T15:50:52.457Z,22.51
2023-03-10T15:51:52.506Z,22.52
2023-03-10T15:52:52.600Z,22.51
2023-03-10T15:53:52.647Z,22.52
2023-03-10T15:54:52.727Z,22.54
2023-03-10T15:55:52.764Z,22.52
2023-03-10T15:56:52.860Z,22.52
2023-03-10T15:57:52.945Z,22.52
2023-03-10T15:58:52.983Z,22.51
2023-03-10T15:59:53.061Z,22.52
2023-03-10T16:00:53.135Z,22.51
2023-03-10T16:01:53.393Z,22.51
2023-03-10T16:02:53.369Z,22.51
2023-03-10T16:03:53.366Z,22.49
2023-03-10T16:04:53.452Z,22.49
2023-03-10T16:05:53.527Z,22.48
2023-03-10T16:06:53.568Z,22.48
2023-03-10T16:07:53.680Z,22.48
2023-03-10T16:08:53.727Z,22.49
2023-03-10T16:09:53.842Z,22.48
2023-03-10T16:10:53.914Z,22.46
2023-03-10T16:11:53.999Z,22.46
2023-03-10T16:12:54.157Z,22.46
2023-03-10T16:13:54.159Z,22.45
2023-03-10T16:14:54.272Z,22.45
2023-03-10T16:15:54.362Z,22.44
2023-03-10T16:16:54.425Z,22.44
2023-03-10T16:17:54.567Z,22.42
2023-03-10T16:18:54.591Z,22.42
2023-03-10T16:19:54.703Z,22.42
2023-03-10T16:20:54.921Z,22.41
2023-03-10T16:21:54.875Z,22.41
2023-03-10T16:22:54.937Z,22.39
2023-03-10T16:23:54.976Z,22.38
2023-03-10T16:24:55.069Z,22.38
2023-03-10T16:25:48.215Z,22.38
2023-03-10T16:26:49.198Z,22.36
2023-03-10T16:27:49.306Z,22.35
2023-03-10T16:28:49.340Z,22.35
2023-03-10T16:29:49.401Z,22.35
2023-03-10T16:30:49.587Z,22.33
2023-03-10T16:31:49.586Z,22.36
2023-03-10T16:32:49.724Z,22.35
2023-03-10T16:33:49.671Z,22.33
2023-03-10T16:34:49.733Z,22.33
2023-03-10T16:35:49.866Z,22.33
2023-03-10T16:36:49.882Z,22.31
2023-03-10T16:37:49.984Z,22.31
2023-03-10T16:38:50.040Z,22.31
2023-03-10T16:39:50.074Z,22.31
2023-03-10T16:40:50.137Z,22.31
2023-03-10T16:41:50.197Z,22.31
2023-03-10T16:42:50.299Z,22.31
2023-03-10T16:43:50.353Z,22.33
2023-03-10T16:44:50.377Z,22.31
2023-03-10T16:45:50.599Z,22.30
2023-03-10T16:46:50.510Z,22.31
2023-03-10T16:47:50.598Z,22.30
2023-03-10T16:48:50.666Z,22.30
2023-03-10T16:49:50.724Z,22.29
2023-03-10T16:50:50.753Z,22.29
2023-03-10T16:51:50.820Z,22.29
2023-03-10T16:52:50.946Z,22.30
2023-03-10T16:53:50.978Z,22.29
2023-03-10T16:54:50.972Z,22.31
2023-03-10T16:55:51.060Z,22.30
2023-03-10T16:56:51.078Z,22.30
2023-03-10T16:57:51.172Z,22.29
2023-03-10T16:58:51.219Z,22.29
2023-03-10T16:59:51.251Z,22.30
2023-03-10T17:00:51.398Z,22.29
2023-03-10T17:01:51.338Z,22.29
2023-03-10T17:02:51.412Z,22.29
2023-03-10T17:03:51.589Z,22.29
2023-03-10T17:04:51.566Z,22.29
2023-03-10T17:05:51.610Z,22.27
2023-03-10T17:06:51.639Z,22.29
2023-03-10T17:07:55.995Z,22.29
2023-03-10T17:08:51.752Z,22.27
2023-03-10T17:09:51.857Z,22.29
2023-03-10T17:10:51.939Z,22.27
2023-03-10T17:11:54.899Z,22.29
2023-03-10T17:12:52.008Z,22.27
2023-03-10T17:13:52.089Z,22.27
2023-03-10T17:14:52.175Z,22.29
2023-03-10T17:15:52.202Z,22.29
2023-03-10T17:16:52.292Z,22.27
2023-03-10T17:17:52.330Z,22.29
2023-03-10T17:18:52.347Z,22.27
2023-03-10T17:19:52.411Z,22.30
2023-03-10T17:20:52.493Z,22.27
2023-03-10T17:21:52.543Z,22.30
2023-03-10T17:22:52.628Z,22.29
2023-03-10T17:23:52.679Z,22.30
2023-03-10T17:24:52.763Z,22.29
2023-03-10T17:25:52.824Z,22.30
2023-03-10T17:26:52.877Z,22.30
2023-03-10T17:27:52.954Z,22.30
2023-03-10T17:28:53.027Z,22.30
2023-03-10T17:29:53.090Z,22.29
2023-03-10T17:30:53.164Z,22.29
2023-03-10T17:31:53.320Z,22.30
2023-03-10T17:32:53.374Z,22.30
2023-03-10T17:33:53.345Z,22.30
2023-03-10T17:34:53.438Z,22.30
2023-03-10T17:35:53.526Z,22.29
2023-03-10T17:36:53.582Z,22.30
2023-03-10T17:37:53.682Z,22.31
2023-03-10T17:38:53.704Z,22.30
2023-03-10T17:39:53.819Z,22.30
2023-03-10T17:40:53.858Z,22.31
2023-03-10T17:41:53.891Z,22.30
2023-03-10T17:42:53.950Z,22.29
2023-03-10T17:43:54.013Z,22.30
2023-03-10T17:44:54.081Z,22.31
2023-03-10T17:45:54.183Z,22.30
2023-03-10T17:46:54.203Z,22.31
2023-03-10T17:47:54.272Z,22.30
2023-03-10T17:48:54.339Z,22.31
2023-03-10T17:49:54.401Z,22.31
2023-03-10T17:50:54.463Z,22.31
2023-03-10T17:51:54.511Z,22.33
2023-03-10T17:52:54.568Z,22.31
2023-03-10T17:53:54.649Z,22.31
2023-03-10T17:54:54.726Z,22.33
2023-03-10T17:55:54.774Z,22.33
2023-03-10T17:56:54.801Z,22.35
2023-03-10T17:57:54.898Z,22.35
2023-03-10T17:58:54.952Z,22.35
2023-03-10T17:59:55.004Z,22.35
2023-03-10T18:00:55.103Z,22.35
2023-03-10T18:01:55.223Z,22.36
2023-03-10T18:02:55.415Z,22.36
2023-03-10T18:03:55.253Z,22.35
2023-03-10T18:04:55.315Z,22.36
2023-03-10T18:05:55.392Z,22.35
2023-03-10T18:06:55.463Z,22.36
2023-03-10T18:07:55.532Z,22.35
2023-03-10T18:08:56.567Z,22.38
2023-03-10T18:09:55.592Z,22.38
2023-03-10T18:10:55.636Z,22.38
2023-03-10T18:11:55.713Z,22.38
2023-03-10T18:12:55.852Z,22.38
2023-03-10T18:13:55.856Z,22.38
2023-03-10T18:14:55.906Z,22.39
2023-03-10T18:15:56.036Z,22.38
2023-03-10T18:16:56.037Z,22.39
2023-03-10T18:17:56.458Z,22.39
2023-03-10T18:18:56.216Z,22.38
2023-03-10T18:19:56.269Z,22.36
2023-03-10T18:20:56.318Z,22.36
2023-03-10T18:21:56.372Z,22.38
2023-03-10T18:22:56.550Z,22.36
2023-03-10T18:23:56.624Z,22.38
2023-03-10T18:24:56.562Z,22.39
2023-03-10T18:25:56.649Z,22.38
2023-03-10T18:26:56.707Z,22.39
2023-03-10T18:27:56.756Z,22.38
2023-03-10T18:28:56.858Z,22.39
2023-03-10T18:29:56.925Z,22.39
2023-03-10T18:30:56.940Z,22.38
2023-03-10T18:31:57.034Z,22.39
2023-03-10T18:32:57.203Z,22.41
2023-03-10T18:33:57.125Z,22.38
2023-03-10T18:34:57.153Z,22.38
2023-03-10T18:35:57.219Z,22.39
2023-03-10T18:36:57.267Z,22.38
2023-03-10T18:37:57.371Z,22.39
2023-03-10T18:38:57.478Z,22.39
2023-03-10T18:39:57.443Z,22.39
2023-03-10T18:40:57.522Z,22.36
2023-03-10T18:41:57.573Z,22.38
2023-03-10T18:42:57.664Z,22.38
2023-03-10T18:43:57.727Z,22.38
2023-03-10T18:44:57.790Z,22.36
2023-03-10T18:45:57.896Z,22.36
2023-03-10T18:46:57.951Z,22.35
2023-03-10T18:47:57.975Z,22.36
2023-03-10T18:48:58.072Z,22.35
2023-03-10T18:49:58.197Z,22.33
2023-03-10T18:50:58.131Z,22.33
2023-03-10T18:51:58.208Z,22.33
2023-03-10T18:52:58.276Z,22.33
2023-03-10T18:53:58.386Z,22.33
2023-03-10T18:54:58.398Z,22.35
2023-03-10T18:55:58.452Z,22.33
2023-03-10T18:56:58.512Z,22.31
2023-03-10T18:57:58.572Z,22.31
2023-03-10T18:58:58.670Z,22.31
2023-03-10T19:00:00.813Z,22.31
2023-03-10T19:00:58.776Z,22.33
2023-03-10T19:01:58.904Z,22.30
2023-03-10T19:02:58.961Z,22.30
2023-03-10T19:03:58.970Z,22.31
2023-03-10T19:04:59.013Z,22.30
2023-03-10T19:05:59.098Z,22.30
2023-03-10T19:06:59.146Z,22.30
2023-03-10T19:07:59.225Z,22.30
2023-03-10T19:08:59.294Z,22.30
2023-03-10T19:09:59.332Z,22.30
2023-03-10T19:10:59.409Z,22.31
2023-03-10T19:11:59.466Z,22.30
2023-03-10T19:12:59.485Z,22.31
2023-03-10T19:13:59.549Z,22.31
2023-03-10T19:14:59.600Z,22.31
2023-03-10T19:15:59.696Z,22.31
2023-03-10T19:16:59.696Z,22.33
2023-03-10T19:17:59.783Z,22.31
2023-03-10T19:18:59.834Z,22.33
2023-03-10T19:19:59.912Z,22.31
2023-03-10T19:20:59.921Z,22.33
2023-03-10T19:21:59.968Z,22.31
2023-03-10T19:23:00.049Z,22.36
2023-03-10T19:24:00.120Z,22.36
2023-03-10T19:25:00.154Z,22.36
2023-03-10T19:26:00.178Z,22.36
2023-03-10T19:27:00.267Z,22.38
2023-03-10T19:28:00.327Z,22.36
2023-03-10T19:29:00.381Z,22.38
2023-03-10T19:30:00.445Z,22.36
2023-03-10T19:31:00.527Z,22.36
2023-03-10T19:32:00.581Z,22.39
2023-03-10T19:33:00.628Z,22.38
2023-03-10T19:34:00.662Z,22.39
2023-03-10T19:35:00.719Z,22.38
2023-03-10T19:36:00.864Z,22.39
2023-03-10T19:37:01.091Z,22.39
2023-03-10T19:38:00.875Z,22.39
2023-03-10T19:39:00.940Z,22.39
2023-03-10T19:40:00.964Z,22.41
2023-03-10T19:41:01.032Z,22.41
2023-03-10T19:42:01.139Z,22.41
2023-03-10T19:43:01.300Z,22.41
2023-03-10T19:44:01.210Z,22.42
2023-03-10T19:45:01.256Z,22.41
2023-03-10T19:46:01.304Z,22.42
2023-03-10T19:47:01.404Z,22.42
2023-03-10T19:48:01.460Z,22.42
2023-03-10T19:49:01.446Z,22.42
2023-03-10T19:50:01.501Z,22.42
2023-03-10T19:51:01.576Z,22.42
2023-03-10T19:52:01.666Z,22.42
2023-03-10T19:53:01.732Z,22.42
2023-03-10T19:54:01.780Z,22.44
2023-03-10T19:55:01.812Z,22.44
2023-03-10T19:56:01.881Z,22.42
2023-03-10T19:57:01.952Z,22.42
2023-03-10T19:58:01.982Z,22.44
2023-03-10T19:59:02.041Z,22.44
2023-03-10T20:00:02.090Z,22.45
2023-03-10T20:01:02.248Z,22.44
2023-03-10T20:02:02.245Z,22.44
2023-03-10T20:03:02.326Z,22.45
2023-03-10T20:04:02.376Z,22.45
2023-03-10T20:05:02.431Z,22.44
2023-03-10T20:06:02.472Z,22.45
2023-03-10T20:07:02.565Z,22.45
2023-03-10T20:08:02.637Z,22.45
2023-03-10T20:09:02.642Z,22.44
2023-03-10T20:10:02.682Z,22.46
2023-03-10T20:11:02.748Z,22.45
2023-03-10T20:12:02.867Z,22.46
2023-03-10T20:13:02.863Z,22.46
2023-03-10T20:14:02.933Z,22.45
2023-03-10T20:15:03.003Z,22.45
2023-03-10T20:16:03.108Z,22.46
2023-03-10T20:17:03.193Z,22.46
2023-03-10T20:18:03.192Z,22.48
2023-03-10T20:19:03.268Z,22.46
2023-03-10T20:20:03.316Z,22.46
2023-03-10T20:21:03.387Z,22.46
2023-03-10T20:22:03.477Z,22.49
2023-03-10T20:23:03.476Z,22.48
2023-03-10T20:24:03.534Z,22.48
2023-03-10T20:25:03.570Z,22.46
2023-03-10T20:26:03.629Z,22.48
2023-03-10T20:27:03.712Z,22.48
2023-03-10T20:28:03.688Z,22.49
2023-03-10T20:29:03.757Z,22.48
2023-03-10T20:30:03.792Z,22.49
2023-03-10T20:31:03.859Z,22.49
2023-03-10T20:32:03.945Z,22.48
2023-03-10T20:33:04.012Z,22.48
2023-03-10T20:34:04.036Z,22.48
2023-03-10T20:35:04.110Z,22.49
2023-03-10T20:36:04.172Z,22.49
2023-03-10T20:37:04.225Z,22.48
2023-03-10T20:38:04.338Z,22.48
2023-03-10T20:39:04.332Z,22.48
2023-03-10T20:40:04.354Z,22.49
2023-03-10T20:41:04.486Z,22.48
2023-03-10T20:42:04.492Z,22.49
2023-03-10T20:43:04.605Z,22.48
2023-03-10T20:44:04.629Z,22.49
2023-03-10T20:45:04.663Z,22.48
2023-03-10T20:46:04.718Z,22.48
2023-03-10T20:47:04.744Z,22.48
2023-03-10T20:48:04.843Z,22.49
2023-03-10T20:49:04.872Z,22.49
2023-03-10T20:50:04.914Z,22.48
2023-03-10T20:51:04.969Z,22.46
2023-03-10T20:52:04.999Z,22.46
2023-03-10T20:53:05.070Z,22.48
2023-03-10T20:54:05.133Z,22.45
2023-03-10T20:55:05.517Z,22.45
2023-03-10T20:56:06.167Z,22.45
2023-03-10T20:57:05.251Z,22.44
2023-03-10T20:58:05.359Z,22.44
2023-03-10T20:59:05.400Z,22.44
2023-03-10T21:00:05.450Z,22.44
2023-03-10T21:01:05.681Z,22.42
2023-03-10T21:02:05.593Z,22.42
2023-03-10T21:03:05.682Z,22.42
2023-03-10T21:04:05.715Z,22.42
2023-03-10T21:05:05.732Z,22.41
2023-03-10T21:06:05.788Z,22.42
2023-03-10T21:07:05.855Z,22.39
2023-03-10T21:08:05.942Z,22.39
2023-03-10T21:09:06.009Z,22.39
2023-03-10T21:10:06.008Z,22.39
2023-03-10T21:11:06.078Z,22.39
2023-03-10T21:12:06.164Z,22.38
2023-03-10T21:13:06.186Z,22.38
2023-03-10T21:14:06.233Z,22.38
2023-03-10T21:15:06.281Z,22.38
2023-03-10T21:16:06.345Z,22.38
2023-03-10T21:17:06.601Z,22.36
2023-03-10T21:18:06.539Z,22.36
2023-03-10T21:19:06.535Z,22.36
2023-03-10T21:20:06.588Z,22.35
2023-03-10T21:21:06.656Z,22.33
2023-03-10T21:22:06.697Z,22.35
2023-03-10T21:23:06.762Z,22.33
2023-03-10T21:24:06.818Z,22.31
2023-03-10T21:25:06.907Z,22.30
2023-03-10T21:26:06.920Z,22.30
2023-03-10T21:27:06.971Z,22.31
2023-03-10T21:28:07.061Z,22.30
2023-03-10T21:29:07.116Z,22.30
2023-03-10T21:30:07.157Z,22.29
2023-03-10T21:31:07.326Z,22.27
2023-03-10T21:32:07.268Z,22.26
2023-03-10T21:33:07.368Z,22.27
2023-03-10T21:34:07.463Z,22.26
2023-03-10T21:35:07.465Z,22.24
2023-03-10T21:36:07.525Z,22.24
2023-03-10T21:37:07.534Z,22.23
2023-03-10T21:38:07.604Z,22.23
2023-03-10T21:39:07.657Z,22.21
2023-03-10T21:40:07.698Z,22.20
2023-03-10T21:41:07.757Z,22.20
2023-03-10T21:42:07.795Z,22.20
2023-03-10T21:43:07.857Z,22.17
2023-03-10T21:44:07.903Z,22.17
2023-03-10T21:45:07.946Z,22.17
2023-03-10T21:46:08.071Z,22.17
2023-03-10T21:47:08.063Z,22.15
2023-03-10T21:48:08.107Z,22.14
2023-03-10T21:49:08.203Z,22.14
2023-03-10T21:50:08.224Z,22.14
2023-03-10T21:51:08.282Z,22.12
2023-03-10T21:52:08.351Z,22.11
2023-03-10T21:53:08.547Z,22.09
2023-03-10T21:54:08.550Z,22.09
2023-03-10T21:55:08.591Z,22.09
2023-03-10T21:56:08.636Z,22.08
2023-03-10T21:57:08.715Z,22.06
2023-03-10T21:58:08.793Z,22.06
2023-03-10T21:59:08.850Z,22.06
2023-03-10T22:00:08.897Z,22.05
2023-03-10T22:01:09.024Z,22.06
2023-03-10T22:02:09.038Z,22.05
2023-03-10T22:03:09.137Z,22.04
2023-03-10T22:04:09.187Z,22.02
2023-03-10T22:05:09.242Z,22.02
2023-03-10T22:06:09.343Z,22.01
2023-03-10T22:07:09.374Z,21.99
2023-03-10T22:08:09.426Z,21.99
2023-03-10T22:09:09.552Z,21.99
2023-03-10T22:10:09.589Z,21.98
2023-03-10T22:11:09.658Z,21.98
2023-03-10T22:12:09.702Z,21.98
2023-03-10T22:13:09.761Z,21.94
2023-03-10T22:14:09.866Z,21.94
2023-03-10T22:15:09.897Z,21.94
2023-03-10T22:16:09.990Z,21.94
2023-03-10T22:17:10.060Z,21.91
2023-03-10T22:18:10.149Z,21.93
2023-03-10T22:19:10.211Z,21.90
2023-03-10T22:20:10.263Z,21.90
2023-03-10T22:21:10.309Z,21.91
2023-03-10T22:22:10.358Z,21.90
2023-03-10T22:23:10.457Z,21.89
2023-03-10T22:24:11.674Z,21.89
2023-03-10T22:25:10.567Z,21.86
2023-03-10T22:26:10.608Z,21.86
2023-03-10T22:27:10.663Z,21.85
2023-03-10T22:28:10.743Z,21.85
2023-03-10T22:29:10.838Z,21.85
2023-03-10T22:30:10.881Z,21.83
2023-03-10T22:31:11.008Z,21.82
2023-03-10T22:32:11.087Z,21.82
2023-03-10T22:33:11.063Z,21.82
2023-03-10T22:34:11.182Z,21.82
2023-03-10T22:35:11.175Z,21.81
2023-03-10T22:36:11.319Z,21.79
2023-03-10T22:37:11.349Z,21.81
2023-03-10T22:38:11.386Z,21.79
2023-03-10T22:39:11.481Z,21.79
2023-03-10T22:40:11.512Z,21.79
2023-03-10T22:41:11.584Z,21.75
2023-03-10T22:42:11.669Z,21.77
2023-03-10T22:43:11.761Z,21.75
2023-03-10T22:44:11.846Z,21.75
2023-03-10T22:45:11.860Z,21.74
2023-03-10T22:46:12.142Z,21.73
2023-03-10T22:47:12.043Z,21.73
2023-03-10T22:48:12.080Z,21.71
2023-03-10T22:49:12.171Z,21.70
2023-03-10T22:50:12.255Z,21.71
2023-03-10T22:51:12.303Z,21.71
2023-03-10T22:52:12.376Z,21.70
2023-03-10T22:53:12.443Z,21.68
2023-03-10T22:54:12.498Z,21.70
2023-03-10T22:55:12.566Z,21.68
2023-03-10T22:56:12.694Z,21.67
2023-03-10T22:57:12.755Z,21.67
2023-03-10T22:58:12.784Z,21.66
2023-03-10T22:59:12.875Z,21.66
2023-03-10T23:00:12.910Z,21.66
2023-03-10T23:01:12.959Z,21.66
2023-03-10T23:02:13.039Z,21.66
2023-03-10T23:03:13.172Z,21.64
2023-03-10T23:04:13.236Z,21.64
2023-03-10T23:05:13.254Z,21.63
2023-03-10T23:06:13.383Z,21.61
2023-03-10T23:07:13.408Z,21.61
2023-03-10T23:08:13.467Z,21.59
2023-03-10T23:09:13.548Z,21.61
2023-03-10T23:10:13.628Z,21.59
2023-03-10T23:11:13.681Z,21.59
2023-03-10T23:12:13.749Z,21.56
2023-03-10T23:13:13.822Z,21.56
2023-03-10T23:14:13.907Z,21.58
2023-03-10T23:15:24.054Z,21.58
2023-03-10T23:16:14.122Z,21.56
2023-03-10T23:17:14.073Z,21.56
2023-03-10T23:18:14.190Z,21.55
2023-03-10T23:19:14.231Z,21.53
2023-03-10T23:20:14.273Z,21.55
2023-03-10T23:21:14.366Z,21.53
2023-03-10T23:22:14.461Z,21.53
2023-03-10T23:23:14.599Z,21.52
2023-03-10T23:24:14.639Z,21.52
2023-03-10T23:25:14.672Z,21.52
2023-03-10T23:26:14.757Z,21.52
2023-03-10T23:27:14.837Z,21.49
2023-03-10T23:28:14.940Z,21.51
2023-03-10T23:29:15.022Z,21.49
2023-03-10T23:30:15.102Z,21.48
2023-03-10T23:31:15.186Z,21.49
2023-03-10T23:32:15.266Z,21.49
2023-03-10T23:33:15.348Z,21.48
2023-03-10T23:34:15.426Z,21.46
2023-03-10T23:35:15.458Z,21.46
2023-03-10T23:36:15.593Z,21.46
2023-03-10T23:37:15.601Z,21.46
2023-03-10T23:38:15.649Z,21.45
2023-03-10T23:39:15.764Z,21.46
2023-03-10T23:40:15.805Z,21.45
2023-03-10T23:41:15.889Z,21.43
2023-03-10T23:42:15.966Z,21.43
2023-03-10T23:43:16.000Z,21.43
2023-03-10T23:44:16.134Z,21.43
2023-03-10T23:45:16.150Z,21.42
2023-03-10T23:46:16.347Z,21.42
2023-03-10T23:47:16.336Z,21.42
2023-03-10T23:48:16.397Z,21.40
2023-03-10T23:49:16.469Z,21.40
2023-03-10T23:50:16.556Z,21.38
2023-03-10T23:51:16.625Z,21.38
2023-03-10T23:52:16.687Z,21.38
2023-03-10T23:53:16.754Z,21.38
2023-03-10T23:54:16.843Z,21.37
2023-03-10T23:55:16.945Z,21.37
2023-03-10T23:56:16.974Z,21.37
2023-03-10T23:57:17.047Z,21.37
2023-03-10T23:58:17.153Z,21.36
2023-03-10T23:59:17.212Z,21.36
